sensor_id;sensor_type;location;lat;lon;timestamp;P1;durP1;ratioP1;P2;durP2;ratioP2
73902;SDS011;62238;48.722;9.270;2022-07-17T00:00:53;4.83;;;2.83;;
73902;SDS011;62238;48.722;9.270;2022-07-17T00:03:18;5.73;;;2.80;;
73902;SDS011;62238;48.722;9.270;2022-07-17T00:05:44;4.90;;;2.60;;
73902;SDS011;62238;48.722;9.270;2022-07-17T00:08:09;4.78;;;2.65;;
73902;SDS011;62238;48.722;9.270;2022-07-17T00:10:36;5.70;;;2.80;;
73902;SDS011;62238;48.722;9.270;2022-07-17T00:13:04;4.75;;;2.80;;
73902;SDS011;62238;48.722;9.270;2022-07-17T00:15:30;4.90;;;2.70;;
73902;SDS011;62238;48.722;9.270;2022-07-17T00:17:55;4.53;;;2.87;;
73902;SDS011;62238;48.722;9.270;2022-07-17T00:20:21;5.70;;;3.03;;
73902;SDS011;62238;48.722;9.270;2022-07-17T00:22:48;6.55;;;2.85;;
73902;SDS011;62238;48.722;9.270;2022-07-17T00:25:14;4.37;;;2.67;;
73902;SDS011;62238;48.722;9.270;2022-07-17T00:27:39;5.23;;;2.80;;
73902;SDS011;62238;48.722;9.270;2022-07-17T00:30:05;4.70;;;3.00;;
73902;SDS011;62238;48.722;9.270;2022-07-17T00:32:31;5.20;;;2.70;;
73902;SDS011;62238;48.722;9.270;2022-07-17T00:34:56;5.43;;;2.80;;
73902;SDS011;62238;48.722;9.270;2022-07-17T00:37:22;4.67;;;3.10;;
73902;SDS011;62238;48.722;9.270;2022-07-17T00:39:47;6.50;;;3.00;;
73902;SDS011;62238;48.722;9.270;2022-07-17T00:42:13;6.13;;;2.90;;
73902;SDS011;62238;48.722;9.270;2022-07-17T00:44:41;5.55;;;3.08;;
73902;SDS011;62238;48.722;9.270;2022-07-17T00:47:13;4.87;;;2.83;;
73902;SDS011;62238;48.722;9.270;2022-07-17T00:49:40;5.00;;;2.88;;
73902;SDS011;62238;48.722;9.270;2022-07-17T00:52:06;7.53;;;3.13;;
73902;SDS011;62238;48.722;9.270;2022-07-17T00:54:34;8.25;;;3.17;;
73902;SDS011;62238;48.722;9.270;2022-07-17T00:57:00;5.53;;;3.10;;
73902;SDS011;62238;48.722;9.270;2022-07-17T00:59:27;5.32;;;3.08;;
73902;SDS011;62238;48.722;9.270;2022-07-17T01:01:53;4.53;;;2.92;;
73902;SDS011;62238;48.722;9.270;2022-07-17T01:04:18;6.27;;;3.40;;
73902;SDS011;62238;48.722;9.270;2022-07-17T01:06:43;5.17;;;2.93;;
73902;SDS011;62238;48.722;9.270;2022-07-17T01:09:12;5.93;;;3.10;;
73902;SDS011;62238;48.722;9.270;2022-07-17T01:11:37;5.70;;;3.35;;
73902;SDS011;62238;48.722;9.270;2022-07-17T01:14:03;5.63;;;3.13;;
73902;SDS011;62238;48.722;9.270;2022-07-17T01:16:28;6.35;;;3.20;;
73902;SDS011;62238;48.722;9.270;2022-07-17T01:18:54;7.07;;;3.60;;
73902;SDS011;62238;48.722;9.270;2022-07-17T01:21:20;7.40;;;3.40;;
73902;SDS011;62238;48.722;9.270;2022-07-17T01:23:45;10.40;;;3.33;;
73902;SDS011;62238;48.722;9.270;2022-07-17T01:26:10;5.38;;;3.00;;
73902;SDS011;62238;48.722;9.270;2022-07-17T01:28:36;7.30;;;3.40;;
73902;SDS011;62238;48.722;9.270;2022-07-17T01:31:01;4.80;;;3.20;;
73902;SDS011;62238;48.722;9.270;2022-07-17T01:33:28;5.38;;;2.92;;
73902;SDS011;62238;48.722;9.270;2022-07-17T01:35:53;7.07;;;3.00;;
73902;SDS011;62238;48.722;9.270;2022-07-17T01:38:19;7.23;;;2.77;;
73902;SDS011;62238;48.722;9.270;2022-07-17T01:40:44;5.23;;;3.43;;
73902;SDS011;62238;48.722;9.270;2022-07-17T01:43:09;6.77;;;3.10;;
73902;SDS011;62238;48.722;9.270;2022-07-17T01:45:35;5.57;;;3.10;;
73902;SDS011;62238;48.722;9.270;2022-07-17T01:48:00;5.27;;;3.13;;
73902;SDS011;62238;48.722;9.270;2022-07-17T01:50:26;5.43;;;2.97;;
73902;SDS011;62238;48.722;9.270;2022-07-17T01:52:51;6.03;;;3.42;;
73902;SDS011;62238;48.722;9.270;2022-07-17T01:55:16;5.57;;;3.10;;
73902;SDS011;62238;48.722;9.270;2022-07-17T01:57:42;6.53;;;3.50;;
73902;SDS011;62238;48.722;9.270;2022-07-17T02:00:09;7.07;;;3.47;;
73902;SDS011;62238;48.722;9.270;2022-07-17T02:02:37;6.38;;;2.88;;
73902;SDS011;62238;48.722;9.270;2022-07-17T02:05:03;5.30;;;3.00;;
73902;SDS011;62238;48.722;9.270;2022-07-17T02:07:28;4.95;;;2.97;;
73902;SDS011;62238;48.722;9.270;2022-07-17T02:09:54;7.70;;;3.37;;
73902;SDS011;62238;48.722;9.270;2022-07-17T02:12:19;7.40;;;3.10;;
73902;SDS011;62238;48.722;9.270;2022-07-17T02:14:44;5.07;;;2.97;;
73902;SDS011;62238;48.722;9.270;2022-07-17T02:17:10;5.90;;;2.90;;
73902;SDS011;62238;48.722;9.270;2022-07-17T02:19:35;5.20;;;2.80;;
73902;SDS011;62238;48.722;9.270;2022-07-17T02:22:02;5.28;;;3.22;;
73902;SDS011;62238;48.722;9.270;2022-07-17T02:24:27;6.03;;;3.10;;
73902;SDS011;62238;48.722;9.270;2022-07-17T02:26:52;7.00;;;3.27;;
73902;SDS011;62238;48.722;9.270;2022-07-17T02:29:18;6.03;;;3.13;;
73902;SDS011;62238;48.722;9.270;2022-07-17T02:31:44;8.30;;;3.30;;
73902;SDS011;62238;48.722;9.270;2022-07-17T02:34:09;5.47;;;3.10;;
73902;SDS011;62238;48.722;9.270;2022-07-17T02:36:34;5.72;;;3.28;;
73902;SDS011;62238;48.722;9.270;2022-07-17T02:39:00;5.70;;;3.20;;
73902;SDS011;62238;48.722;9.270;2022-07-17T02:41:26;4.78;;;3.30;;
73902;SDS011;62238;48.722;9.270;2022-07-17T02:43:51;5.60;;;3.40;;
73902;SDS011;62238;48.722;9.270;2022-07-17T02:46:16;5.87;;;3.20;;
73902;SDS011;62238;48.722;9.270;2022-07-17T02:48:42;6.40;;;3.50;;
73902;SDS011;62238;48.722;9.270;2022-07-17T02:51:07;7.47;;;3.40;;
73902;SDS011;62238;48.722;9.270;2022-07-17T02:53:33;6.70;;;3.40;;
73902;SDS011;62238;48.722;9.270;2022-07-17T02:55:58;5.57;;;3.43;;
73902;SDS011;62238;48.722;9.270;2022-07-17T02:58:24;4.80;;;3.03;;
73902;SDS011;62238;48.722;9.270;2022-07-17T03:00:49;5.13;;;3.28;;
73902;SDS011;62238;48.722;9.270;2022-07-17T03:03:15;5.57;;;3.47;;
73902;SDS011;62238;48.722;9.270;2022-07-17T03:05:40;5.63;;;3.33;;
73902;SDS011;62238;48.722;9.270;2022-07-17T03:08:06;6.82;;;3.55;;
73902;SDS011;62238;48.722;9.270;2022-07-17T03:10:31;6.50;;;3.40;;
73902;SDS011;62238;48.722;9.270;2022-07-17T03:12:57;6.38;;;3.50;;
73902;SDS011;62238;48.722;9.270;2022-07-17T03:15:22;6.93;;;3.60;;
73902;SDS011;62238;48.722;9.270;2022-07-17T03:17:48;5.97;;;3.47;;
73902;SDS011;62238;48.722;9.270;2022-07-17T03:20:13;5.70;;;3.57;;
73902;SDS011;62238;48.722;9.270;2022-07-17T03:22:39;7.50;;;3.47;;
73902;SDS011;62238;48.722;9.270;2022-07-17T03:25:04;7.15;;;3.40;;
73902;SDS011;62238;48.722;9.270;2022-07-17T03:27:30;5.55;;;3.30;;
73902;SDS011;62238;48.722;9.270;2022-07-17T03:29:56;5.93;;;3.47;;
73902;SDS011;62238;48.722;9.270;2022-07-17T03:32:21;4.80;;;3.30;;
73902;SDS011;62238;48.722;9.270;2022-07-17T03:34:46;7.23;;;3.53;;
73902;SDS011;62238;48.722;9.270;2022-07-17T03:37:12;5.57;;;3.13;;
73902;SDS011;62238;48.722;9.270;2022-07-17T03:39:37;6.47;;;3.43;;
73902;SDS011;62238;48.722;9.270;2022-07-17T03:42:03;6.57;;;3.60;;
73902;SDS011;62238;48.722;9.270;2022-07-17T03:44:28;4.80;;;3.30;;
73902;SDS011;62238;48.722;9.270;2022-07-17T03:46:54;5.47;;;3.40;;
73902;SDS011;62238;48.722;9.270;2022-07-17T03:49:19;5.97;;;3.60;;
73902;SDS011;62238;48.722;9.270;2022-07-17T03:51:44;5.10;;;3.40;;
73902;SDS011;62238;48.722;9.270;2022-07-17T03:54:10;5.90;;;3.70;;
73902;SDS011;62238;48.722;9.270;2022-07-17T03:56:35;6.33;;;3.50;;
73902;SDS011;62238;48.722;9.270;2022-07-17T03:59:00;7.53;;;3.67;;
73902;SDS011;62238;48.722;9.270;2022-07-17T04:01:26;5.73;;;3.23;;
73902;SDS011;62238;48.722;9.270;2022-07-17T04:03:51;5.90;;;3.60;;
73902;SDS011;62238;48.722;9.270;2022-07-17T04:06:17;6.90;;;3.38;;
73902;SDS011;62238;48.722;9.270;2022-07-17T04:08:42;5.67;;;3.47;;
73902;SDS011;62238;48.722;9.270;2022-07-17T04:11:07;4.80;;;3.13;;
73902;SDS011;62238;48.722;9.270;2022-07-17T04:13:33;8.13;;;3.33;;
73902;SDS011;62238;48.722;9.270;2022-07-17T04:15:58;5.20;;;3.28;;
73902;SDS011;62238;48.722;9.270;2022-07-17T04:18:28;5.57;;;3.30;;
73902;SDS011;62238;48.722;9.270;2022-07-17T04:20:57;6.50;;;3.42;;
73902;SDS011;62238;48.722;9.270;2022-07-17T04:23:24;6.53;;;3.50;;
73902;SDS011;62238;48.722;9.270;2022-07-17T04:25:50;5.32;;;3.28;;
73902;SDS011;62238;48.722;9.270;2022-07-17T04:28:15;5.87;;;3.03;;
73902;SDS011;62238;48.722;9.270;2022-07-17T04:30:41;5.23;;;3.20;;
73902;SDS011;62238;48.722;9.270;2022-07-17T04:33:07;7.57;;;3.40;;
73902;SDS011;62238;48.722;9.270;2022-07-17T04:35:33;5.10;;;3.13;;
73902;SDS011;62238;48.722;9.270;2022-07-17T04:37:58;5.13;;;3.20;;
73902;SDS011;62238;48.722;9.270;2022-07-17T04:40:24;6.20;;;3.20;;
73902;SDS011;62238;48.722;9.270;2022-07-17T04:42:49;5.63;;;2.93;;
73902;SDS011;62238;48.722;9.270;2022-07-17T04:45:14;6.22;;;3.13;;
73902;SDS011;62238;48.722;9.270;2022-07-17T04:47:40;5.40;;;2.87;;
73902;SDS011;62238;48.722;9.270;2022-07-17T04:50:06;4.70;;;2.97;;
73902;SDS011;62238;48.722;9.270;2022-07-17T04:52:32;5.23;;;2.90;;
73902;SDS011;62238;48.722;9.270;2022-07-17T04:54:57;6.03;;;3.10;;
73902;SDS011;62238;48.722;9.270;2022-07-17T04:57:23;5.17;;;2.93;;
73902;SDS011;62238;48.722;9.270;2022-07-17T04:59:48;7.07;;;3.33;;
73902;SDS011;62238;48.722;9.270;2022-07-17T05:02:13;5.20;;;3.03;;
73902;SDS011;62238;48.722;9.270;2022-07-17T05:04:39;5.00;;;3.00;;
73902;SDS011;62238;48.722;9.270;2022-07-17T05:07:04;6.20;;;3.33;;
73902;SDS011;62238;48.722;9.270;2022-07-17T05:09:30;6.30;;;3.20;;
73902;SDS011;62238;48.722;9.270;2022-07-17T05:11:55;4.60;;;3.00;;
73902;SDS011;62238;48.722;9.270;2022-07-17T05:14:20;6.03;;;3.10;;
73902;SDS011;62238;48.722;9.270;2022-07-17T05:16:46;5.05;;;2.70;;
73902;SDS011;62238;48.722;9.270;2022-07-17T05:19:11;5.50;;;3.00;;
73902;SDS011;62238;48.722;9.270;2022-07-17T05:21:37;4.93;;;2.85;;
73902;SDS011;62238;48.722;9.270;2022-07-17T05:24:03;5.17;;;2.87;;
73902;SDS011;62238;48.722;9.270;2022-07-17T05:26:29;6.10;;;2.85;;
73902;SDS011;62238;48.722;9.270;2022-07-17T05:28:54;5.23;;;3.20;;
73902;SDS011;62238;48.722;9.270;2022-07-17T05:31:19;6.43;;;3.20;;
73902;SDS011;62238;48.722;9.270;2022-07-17T05:33:45;5.73;;;3.17;;
73902;SDS011;62238;48.722;9.270;2022-07-17T05:36:10;5.23;;;2.80;;
73902;SDS011;62238;48.722;9.270;2022-07-17T05:38:35;8.07;;;3.37;;
73902;SDS011;62238;48.722;9.270;2022-07-17T05:41:02;6.10;;;3.35;;
73902;SDS011;62238;48.722;9.270;2022-07-17T05:43:27;4.87;;;3.27;;
73902;SDS011;62238;48.722;9.270;2022-07-17T05:45:53;4.70;;;3.10;;
73902;SDS011;62238;48.722;9.270;2022-07-17T05:48:20;6.82;;;3.50;;
73902;SDS011;62238;48.722;9.270;2022-07-17T05:50:45;4.43;;;3.00;;
73902;SDS011;62238;48.722;9.270;2022-07-17T05:53:11;6.13;;;3.47;;
73902;SDS011;62238;48.722;9.270;2022-07-17T05:55:36;6.13;;;3.37;;
73902;SDS011;62238;48.722;9.270;2022-07-17T05:58:02;6.80;;;3.20;;
73902;SDS011;62238;48.722;9.270;2022-07-17T06:00:27;5.37;;;3.17;;
73902;SDS011;62238;48.722;9.270;2022-07-17T06:02:52;5.60;;;3.47;;
73902;SDS011;62238;48.722;9.270;2022-07-17T06:05:18;6.57;;;3.20;;
73902;SDS011;62238;48.722;9.270;2022-07-17T06:07:43;4.90;;;3.30;;
73902;SDS011;62238;48.722;9.270;2022-07-17T06:10:09;4.50;;;3.20;;
73902;SDS011;62238;48.722;9.270;2022-07-17T06:12:35;6.38;;;3.17;;
73902;SDS011;62238;48.722;9.270;2022-07-17T06:15:00;5.10;;;3.47;;
73902;SDS011;62238;48.722;9.270;2022-07-17T06:17:25;5.83;;;3.20;;
73902;SDS011;62238;48.722;9.270;2022-07-17T06:19:51;4.87;;;3.17;;
73902;SDS011;62238;48.722;9.270;2022-07-17T06:22:17;5.50;;;3.22;;
73902;SDS011;62238;48.722;9.270;2022-07-17T06:24:44;5.00;;;3.20;;
73902;SDS011;62238;48.722;9.270;2022-07-17T06:27:09;6.37;;;3.13;;
73902;SDS011;62238;48.722;9.270;2022-07-17T06:29:35;5.47;;;3.30;;
73902;SDS011;62238;48.722;9.270;2022-07-17T06:32:00;6.80;;;3.27;;
73902;SDS011;62238;48.722;9.270;2022-07-17T06:34:25;4.80;;;2.97;;
73902;SDS011;62238;48.722;9.270;2022-07-17T06:36:51;4.73;;;2.97;;
73902;SDS011;62238;48.722;9.270;2022-07-17T06:39:16;6.87;;;3.33;;
73902;SDS011;62238;48.722;9.270;2022-07-17T06:41:42;5.40;;;2.87;;
73902;SDS011;62238;48.722;9.270;2022-07-17T06:44:07;4.90;;;2.95;;
73902;SDS011;62238;48.722;9.270;2022-07-17T06:46:32;5.77;;;3.00;;
73902;SDS011;62238;48.722;9.270;2022-07-17T06:48:58;3.90;;;2.90;;
73902;SDS011;62238;48.722;9.270;2022-07-17T06:51:23;4.50;;;2.80;;
73902;SDS011;62238;48.722;9.270;2022-07-17T06:53:49;5.38;;;3.13;;
73902;SDS011;62238;48.722;9.270;2022-07-17T06:56:14;5.30;;;2.67;;
73902;SDS011;62238;48.722;9.270;2022-07-17T06:58:40;6.60;;;3.00;;
73902;SDS011;62238;48.722;9.270;2022-07-17T07:01:05;5.47;;;3.03;;
73902;SDS011;62238;48.722;9.270;2022-07-17T07:03:30;4.70;;;2.90;;
73902;SDS011;62238;48.722;9.270;2022-07-17T07:05:56;4.10;;;2.87;;
73902;SDS011;62238;48.722;9.270;2022-07-17T07:08:21;5.63;;;2.70;;
73902;SDS011;62238;48.722;9.270;2022-07-17T07:10:46;4.80;;;2.53;;
73902;SDS011;62238;48.722;9.270;2022-07-17T07:13:12;6.43;;;2.47;;
73902;SDS011;62238;48.722;9.270;2022-07-17T07:15:37;4.20;;;2.50;;
73902;SDS011;62238;48.722;9.270;2022-07-17T07:18:03;4.70;;;2.50;;
73902;SDS011;62238;48.722;9.270;2022-07-17T07:20:28;5.57;;;2.70;;
73902;SDS011;62238;48.722;9.270;2022-07-17T07:22:53;4.97;;;2.90;;
73902;SDS011;62238;48.722;9.270;2022-07-17T07:25:19;4.43;;;2.40;;
73902;SDS011;62238;48.722;9.270;2022-07-17T07:27:44;4.53;;;2.57;;
73902;SDS011;62238;48.722;9.270;2022-07-17T07:30:10;5.73;;;2.53;;
73902;SDS011;62238;48.722;9.270;2022-07-17T07:32:36;4.15;;;2.72;;
73902;SDS011;62238;48.722;9.270;2022-07-17T07:35:05;3.35;;;2.35;;
73902;SDS011;62238;48.722;9.270;2022-07-17T07:37:31;2.87;;;2.10;;
73902;SDS011;62238;48.722;9.270;2022-07-17T07:39:57;4.45;;;2.38;;
73902;SDS011;62238;48.722;9.270;2022-07-17T07:42:22;4.57;;;2.40;;
73902;SDS011;62238;48.722;9.270;2022-07-17T07:44:47;3.83;;;2.30;;
73902;SDS011;62238;48.722;9.270;2022-07-17T07:47:13;5.20;;;2.40;;
73902;SDS011;62238;48.722;9.270;2022-07-17T07:49:38;3.60;;;2.10;;
73902;SDS011;62238;48.722;9.270;2022-07-17T07:52:03;5.13;;;2.50;;
73902;SDS011;62238;48.722;9.270;2022-07-17T07:54:29;4.57;;;2.20;;
73902;SDS011;62238;48.722;9.270;2022-07-17T07:56:55;6.05;;;2.67;;
73902;SDS011;62238;48.722;9.270;2022-07-17T07:59:20;3.50;;;2.20;;
73902;SDS011;62238;48.722;9.270;2022-07-17T08:01:46;4.10;;;2.40;;
73902;SDS011;62238;48.722;9.270;2022-07-17T08:04:11;4.60;;;2.50;;
73902;SDS011;62238;48.722;9.270;2022-07-17T08:06:36;5.83;;;2.97;;
73902;SDS011;62238;48.722;9.270;2022-07-17T08:09:03;5.05;;;2.75;;
73902;SDS011;62238;48.722;9.270;2022-07-17T08:11:28;5.77;;;2.80;;
73902;SDS011;62238;48.722;9.270;2022-07-17T08:13:54;4.80;;;2.70;;
73902;SDS011;62238;48.722;9.270;2022-07-17T08:16:19;5.87;;;2.67;;
73902;SDS011;62238;48.722;9.270;2022-07-17T08:18:44;4.63;;;2.63;;
73902;SDS011;62238;48.722;9.270;2022-07-17T08:21:10;5.05;;;2.80;;
73902;SDS011;62238;48.722;9.270;2022-07-17T08:23:35;3.80;;;2.70;;
73902;SDS011;62238;48.722;9.270;2022-07-17T08:26:01;5.43;;;2.53;;
73902;SDS011;62238;48.722;9.270;2022-07-17T08:28:27;5.13;;;2.55;;
73902;SDS011;62238;48.722;9.270;2022-07-17T08:30:52;5.63;;;2.60;;
73902;SDS011;62238;48.722;9.270;2022-07-17T08:33:17;4.00;;;2.70;;
73902;SDS011;62238;48.722;9.270;2022-07-17T08:35:43;4.03;;;2.53;;
73902;SDS011;62238;48.722;9.270;2022-07-17T08:38:08;3.17;;;2.47;;
73902;SDS011;62238;48.722;9.270;2022-07-17T08:40:34;5.90;;;3.00;;
73902;SDS011;62238;48.722;9.270;2022-07-17T08:43:02;3.95;;;2.47;;
73902;SDS011;62238;48.722;9.270;2022-07-17T08:45:28;4.70;;;2.70;;
73902;SDS011;62238;48.722;9.270;2022-07-17T08:47:55;4.70;;;2.90;;
73902;SDS011;62238;48.722;9.270;2022-07-17T08:50:30;3.85;;;2.40;;
73902;SDS011;62238;48.722;9.270;2022-07-17T08:52:57;5.33;;;3.10;;
73902;SDS011;62238;48.722;9.270;2022-07-17T08:55:23;3.75;;;2.80;;
73902;SDS011;62238;48.722;9.270;2022-07-17T08:57:48;5.73;;;3.20;;
73902;SDS011;62238;48.722;9.270;2022-07-17T09:00:15;5.20;;;2.58;;
73902;SDS011;62238;48.722;9.270;2022-07-17T09:02:52;4.32;;;2.50;;
73902;SDS011;62238;48.722;9.270;2022-07-17T09:05:21;3.67;;;2.50;;
73902;SDS011;62238;48.722;9.270;2022-07-17T09:07:48;3.97;;;2.53;;
73902;SDS011;62238;48.722;9.270;2022-07-17T09:10:14;3.28;;;2.58;;
73902;SDS011;62238;48.722;9.270;2022-07-17T09:12:39;4.35;;;2.30;;
73902;SDS011;62238;48.722;9.270;2022-07-17T09:15:18;3.53;;;2.60;;
73902;SDS011;62238;48.722;9.270;2022-07-17T09:17:48;6.50;;;2.60;;
73902;SDS011;62238;48.722;9.270;2022-07-17T09:20:14;5.00;;;2.50;;
73902;SDS011;62238;48.722;9.270;2022-07-17T09:22:39;5.27;;;2.40;;
73902;SDS011;62238;48.722;9.270;2022-07-17T09:25:07;4.10;;;2.35;;
73902;SDS011;62238;48.722;9.270;2022-07-17T09:27:33;3.85;;;2.20;;
73902;SDS011;62238;48.722;9.270;2022-07-17T09:30:00;4.27;;;2.20;;
73902;SDS011;62238;48.722;9.270;2022-07-17T09:32:31;4.40;;;2.15;;
73902;SDS011;62238;48.722;9.270;2022-07-17T09:35:00;4.45;;;2.28;;
73902;SDS011;62238;48.722;9.270;2022-07-17T09:37:27;5.50;;;2.10;;
73902;SDS011;62238;48.722;9.270;2022-07-17T09:39:54;2.85;;;2.10;;
73902;SDS011;62238;48.722;9.270;2022-07-17T09:42:27;3.78;;;2.10;;
73902;SDS011;62238;48.722;9.270;2022-07-17T09:44:55;3.70;;;2.20;;
73902;SDS011;62238;48.722;9.270;2022-07-17T09:47:28;3.03;;;1.90;;
73902;SDS011;62238;48.722;9.270;2022-07-17T09:49:55;2.80;;;2.00;;
73902;SDS011;62238;48.722;9.270;2022-07-17T09:52:22;3.45;;;1.90;;
73902;SDS011;62238;48.722;9.270;2022-07-17T09:54:48;5.05;;;2.10;;
73902;SDS011;62238;48.722;9.270;2022-07-17T09:57:17;3.38;;;1.80;;
73902;SDS011;62238;48.722;9.270;2022-07-17T09:59:43;3.33;;;2.05;;
73902;SDS011;62238;48.722;9.270;2022-07-17T10:02:10;3.27;;;2.17;;
73902;SDS011;62238;48.722;9.270;2022-07-17T10:04:36;2.75;;;1.90;;
73902;SDS011;62238;48.722;9.270;2022-07-17T10:07:01;4.37;;;2.10;;
73902;SDS011;62238;48.722;9.270;2022-07-17T10:09:27;4.00;;;2.10;;
73902;SDS011;62238;48.722;9.270;2022-07-17T10:11:53;3.03;;;1.87;;
73902;SDS011;62238;48.722;9.270;2022-07-17T10:14:19;3.35;;;1.80;;
73902;SDS011;62238;48.722;9.270;2022-07-17T10:16:45;3.03;;;1.83;;
73902;SDS011;62238;48.722;9.270;2022-07-17T10:19:20;2.37;;;1.80;;
73902;SDS011;62238;48.722;9.270;2022-07-17T10:21:57;4.20;;;1.85;;
73902;SDS011;62238;48.722;9.270;2022-07-17T10:24:24;3.90;;;2.00;;
73902;SDS011;62238;48.722;9.270;2022-07-17T10:26:50;3.83;;;2.00;;
73902;SDS011;62238;48.722;9.270;2022-07-17T10:29:29;3.37;;;1.83;;
73902;SDS011;62238;48.722;9.270;2022-07-17T10:31:59;2.95;;;1.80;;
73902;SDS011;62238;48.722;9.270;2022-07-17T10:34:39;2.63;;;1.70;;
73902;SDS011;62238;48.722;9.270;2022-07-17T10:37:19;3.05;;;1.67;;
73902;SDS011;62238;48.722;9.270;2022-07-17T10:39:57;2.90;;;1.70;;
73902;SDS011;62238;48.722;9.270;2022-07-17T10:45:32;2.88;;;1.77;;
73902;SDS011;62238;48.722;9.270;2022-07-17T10:48:03;2.07;;;1.70;;
73902;SDS011;62238;48.722;9.270;2022-07-17T10:50:31;2.72;;;1.80;;
73902;SDS011;62238;48.722;9.270;2022-07-17T10:53:06;3.45;;;2.00;;
73902;SDS011;62238;48.722;9.270;2022-07-17T10:55:38;2.67;;;1.80;;
73902;SDS011;62238;48.722;9.270;2022-07-17T11:01:23;2.13;;;1.80;;
73902;SDS011;62238;48.722;9.270;2022-07-17T11:03:46;2.83;;;1.80;;
73902;SDS011;62238;48.722;9.270;2022-07-17T11:06:16;5.07;;;1.70;;
73902;SDS011;62238;48.722;9.270;2022-07-17T11:11:11;2.58;;;1.70;;
73902;SDS011;62238;48.722;9.270;2022-07-17T11:13:37;2.93;;;1.80;;
73902;SDS011;62238;48.722;9.270;2022-07-17T11:16:02;2.17;;;1.60;;
73902;SDS011;62238;48.722;9.270;2022-07-17T11:18:28;4.80;;;1.85;;
73902;SDS011;62238;48.722;9.270;2022-07-17T11:20:55;2.47;;;1.60;;
73902;SDS011;62238;48.722;9.270;2022-07-17T11:23:23;3.22;;;1.67;;
73902;SDS011;62238;48.722;9.270;2022-07-17T11:25:51;3.28;;;1.90;;
73902;SDS011;62238;48.722;9.270;2022-07-17T11:28:29;2.67;;;1.50;;
73902;SDS011;62238;48.722;9.270;2022-07-17T11:30:55;3.67;;;1.90;;
73902;SDS011;62238;48.722;9.270;2022-07-17T11:33:20;2.25;;;1.70;;
73902;SDS011;62238;48.722;9.270;2022-07-17T11:35:46;5.03;;;1.97;;
73902;SDS011;62238;48.722;9.270;2022-07-17T11:38:12;3.60;;;1.97;;
73902;SDS011;62238;48.722;9.270;2022-07-17T11:40:46;4.78;;;1.80;;
73902;SDS011;62238;48.722;9.270;2022-07-17T11:43:13;2.40;;;1.70;;
73902;SDS011;62238;48.722;9.270;2022-07-17T11:45:38;3.60;;;1.83;;
73902;SDS011;62238;48.722;9.270;2022-07-17T11:48:04;2.72;;;1.70;;
73902;SDS011;62238;48.722;9.270;2022-07-17T11:50:30;2.97;;;1.70;;
73902;SDS011;62238;48.722;9.270;2022-07-17T11:52:59;2.60;;;1.83;;
73902;SDS011;62238;48.722;9.270;2022-07-17T11:55:34;2.95;;;1.70;;
73902;SDS011;62238;48.722;9.270;2022-07-17T11:58:03;2.38;;;1.63;;
73902;SDS011;62238;48.722;9.270;2022-07-17T12:00:28;3.40;;;1.80;;
73902;SDS011;62238;48.722;9.270;2022-07-17T12:03:00;2.53;;;1.70;;
73902;SDS011;62238;48.722;9.270;2022-07-17T12:05:30;2.63;;;1.77;;
73902;SDS011;62238;48.722;9.270;2022-07-17T12:07:56;3.53;;;1.80;;
73902;SDS011;62238;48.722;9.270;2022-07-17T12:10:23;4.83;;;1.90;;
73902;SDS011;62238;48.722;9.270;2022-07-17T12:15:35;2.00;;;1.60;;
73902;SDS011;62238;48.722;9.270;2022-07-17T12:18:24;1.98;;;1.48;;
73902;SDS011;62238;48.722;9.270;2022-07-17T12:20:52;2.58;;;2.00;;
73902;SDS011;62238;48.722;9.270;2022-07-17T12:23:37;2.30;;;1.52;;
73902;SDS011;62238;48.722;9.270;2022-07-17T12:28:33;3.70;;;1.90;;
73902;SDS011;62238;48.722;9.270;2022-07-17T12:30:59;3.85;;;1.80;;
73902;SDS011;62238;48.722;9.270;2022-07-17T12:33:25;2.42;;;1.80;;
73902;SDS011;62238;48.722;9.270;2022-07-17T12:35:50;3.23;;;1.90;;
73902;SDS011;62238;48.722;9.270;2022-07-17T12:38:16;2.30;;;1.70;;
73902;SDS011;62238;48.722;9.270;2022-07-17T12:40:41;3.93;;;2.00;;
73902;SDS011;62238;48.722;9.270;2022-07-17T12:43:08;2.92;;;2.00;;
73902;SDS011;62238;48.722;9.270;2022-07-17T12:45:33;2.57;;;2.00;;
73902;SDS011;62238;48.722;9.270;2022-07-17T12:47:59;3.75;;;1.98;;
73902;SDS011;62238;48.722;9.270;2022-07-17T12:50:24;2.83;;;1.83;;
73902;SDS011;62238;48.722;9.270;2022-07-17T12:52:49;2.40;;;1.80;;
73902;SDS011;62238;48.722;9.270;2022-07-17T12:55:15;2.13;;;1.70;;
73902;SDS011;62238;48.722;9.270;2022-07-17T12:57:40;2.27;;;1.90;;
73902;SDS011;62238;48.722;9.270;2022-07-17T13:00:05;3.40;;;1.90;;
73902;SDS011;62238;48.722;9.270;2022-07-17T13:02:31;3.03;;;1.90;;
73902;SDS011;62238;48.722;9.270;2022-07-17T13:04:57;2.45;;;2.03;;
73902;SDS011;62238;48.722;9.270;2022-07-17T13:07:22;7.90;;;2.00;;
73902;SDS011;62238;48.722;9.270;2022-07-17T13:09:47;3.73;;;2.10;;
73902;SDS011;62238;48.722;9.270;2022-07-17T13:12:13;2.83;;;1.70;;
73902;SDS011;62238;48.722;9.270;2022-07-17T13:14:38;3.22;;;1.80;;
73902;SDS011;62238;48.722;9.270;2022-07-17T13:17:04;3.57;;;1.90;;
73902;SDS011;62238;48.722;9.270;2022-07-17T13:19:29;2.93;;;1.87;;
73902;SDS011;62238;48.722;9.270;2022-07-17T13:21:54;3.20;;;1.73;;
73902;SDS011;62238;48.722;9.270;2022-07-17T13:24:20;2.50;;;1.80;;
73902;SDS011;62238;48.722;9.270;2022-07-17T13:26:46;2.65;;;1.70;;
73902;SDS011;62238;48.722;9.270;2022-07-17T13:29:11;3.58;;;1.85;;
73902;SDS011;62238;48.722;9.270;2022-07-17T13:31:37;3.23;;;2.10;;
73902;SDS011;62238;48.722;9.270;2022-07-17T13:34:02;2.83;;;1.80;;
73902;SDS011;62238;48.722;9.270;2022-07-17T13:36:28;2.78;;;2.00;;
73902;SDS011;62238;48.722;9.270;2022-07-17T13:38:53;2.53;;;1.70;;
73902;SDS011;62238;48.722;9.270;2022-07-17T13:41:18;3.23;;;2.00;;
73902;SDS011;62238;48.722;9.270;2022-07-17T13:43:44;3.77;;;1.90;;
73902;SDS011;62238;48.722;9.270;2022-07-17T13:46:09;3.08;;;1.83;;
73902;SDS011;62238;48.722;9.270;2022-07-17T13:48:35;4.13;;;1.83;;
73902;SDS011;62238;48.722;9.270;2022-07-17T13:51:00;3.50;;;1.70;;
73902;SDS011;62238;48.722;9.270;2022-07-17T13:53:25;4.23;;;2.00;;
73902;SDS011;62238;48.722;9.270;2022-07-17T13:55:51;3.40;;;1.83;;
73902;SDS011;62238;48.722;9.270;2022-07-17T13:58:16;3.47;;;2.00;;
73902;SDS011;62238;48.722;9.270;2022-07-17T14:00:42;3.37;;;1.80;;
73902;SDS011;62238;48.722;9.270;2022-07-17T14:03:07;2.97;;;1.80;;
73902;SDS011;62238;48.722;9.270;2022-07-17T14:05:32;3.70;;;2.10;;
73902;SDS011;62238;48.722;9.270;2022-07-17T14:07:58;3.07;;;1.97;;
73902;SDS011;62238;48.722;9.270;2022-07-17T14:10:24;3.33;;;1.90;;
73902;SDS011;62238;48.722;9.270;2022-07-17T14:12:49;3.57;;;2.20;;
73902;SDS011;62238;48.722;9.270;2022-07-17T14:15:15;4.63;;;1.87;;
73902;SDS011;62238;48.722;9.270;2022-07-17T14:17:40;2.23;;;1.80;;
73902;SDS011;62238;48.722;9.270;2022-07-17T14:20:06;6.13;;;2.00;;
73902;SDS011;62238;48.722;9.270;2022-07-17T14:22:32;3.58;;;1.90;;
73902;SDS011;62238;48.722;9.270;2022-07-17T14:24:57;3.40;;;1.97;;
73902;SDS011;62238;48.722;9.270;2022-07-17T14:27:22;3.00;;;1.90;;
73902;SDS011;62238;48.722;9.270;2022-07-17T14:29:48;2.67;;;1.90;;
73902;SDS011;62238;48.722;9.270;2022-07-17T14:32:14;3.53;;;1.90;;
73902;SDS011;62238;48.722;9.270;2022-07-17T14:34:39;3.27;;;1.93;;
73902;SDS011;62238;48.722;9.270;2022-07-17T14:37:05;4.60;;;2.03;;
73902;SDS011;62238;48.722;9.270;2022-07-17T14:39:32;3.92;;;1.77;;
73902;SDS011;62238;48.722;9.270;2022-07-17T14:41:58;3.78;;;1.80;;
73902;SDS011;62238;48.722;9.270;2022-07-17T14:44:24;3.00;;;1.97;;
73902;SDS011;62238;48.722;9.270;2022-07-17T14:46:50;4.25;;;1.90;;
73902;SDS011;62238;48.722;9.270;2022-07-17T14:49:15;4.23;;;1.80;;
73902;SDS011;62238;48.722;9.270;2022-07-17T14:51:41;2.50;;;1.80;;
73902;SDS011;62238;48.722;9.270;2022-07-17T14:54:06;2.80;;;1.80;;
73902;SDS011;62238;48.722;9.270;2022-07-17T14:56:32;3.35;;;1.80;;